createdAt,value
2023-01-01T00:01:22.362Z,9.20
2023-01-01T00:03:52.967Z,9.48
2023-01-01T00:06:19.391Z,10.05
2023-01-01T00:08:46.309Z,9.05
2023-01-01T00:11:12.721Z,8.20
2023-01-01T00:13:40.634Z,7.80
2023-01-01T00:16:12.507Z,7.65
2023-01-01T00:18:40.039Z,7.85
2023-01-01T00:21:16.189Z,7.15
2023-01-01T00:23:42.633Z,6.47
2023-01-01T00:26:13.981Z,6.75
2023-01-01T00:28:40.574Z,6.30
2023-01-01T00:31:19.434Z,5.72
2023-01-01T00:33:49.859Z,6.00
2023-01-01T00:36:17.081Z,5.82
2023-01-01T00:38:44.911Z,5.38
2023-01-01T00:41:12.417Z,5.43
2023-01-01T00:43:38.966Z,5.13
2023-01-01T00:46:06.433Z,4.75
2023-01-01T00:48:33.377Z,4.60
2023-01-01T00:51:00.093Z,4.53
2023-01-01T00:53:26.547Z,4.35
2023-01-01T00:55:53.163Z,4.22
2023-01-01T00:58:19.682Z,4.55
2023-01-01T01:00:46.536Z,4.28
2023-01-01T01:03:27.952Z,4.25
2023-01-01T01:06:10.876Z,4.22
2023-01-01T01:08:40.118Z,3.97
2023-01-01T01:11:14.263Z,4.22
2023-01-01T01:13:41.437Z,3.72
2023-01-01T01:16:12.823Z,3.53
2023-01-01T01:18:40.883Z,3.33
2023-01-01T01:21:07.641Z,3.60
2023-01-01T01:23:34.457Z,3.55
2023-01-01T01:26:09.034Z,3.55
2023-01-01T01:28:35.580Z,3.38
2023-01-01T01:31:02.039Z,3.50
2023-01-01T01:33:28.682Z,3.05
2023-01-01T01:35:55.057Z,3.85
2023-01-01T01:38:22.125Z,3.05
2023-01-01T01:40:48.991Z,3.10
2023-01-01T01:43:32.662Z,3.20
2023-01-01T01:46:02.206Z,3.10
2023-01-01T01:48:28.674Z,3.13
2023-01-01T01:50:56.509Z,3.45
2023-01-01T01:53:27.417Z,3.05
2023-01-01T01:56:03.622Z,3.15
2023-01-01T01:58:31.782Z,2.70
2023-01-01T02:00:58.308Z,3.05
2023-01-01T02:03:39.709Z,2.92
2023-01-01T02:06:06.540Z,3.10
2023-01-01T02:08:34.974Z,3.40
2023-01-01T02:11:01.682Z,2.97
2023-01-01T02:13:28.152Z,3.13
2023-01-01T02:15:56.573Z,3.10
2023-01-01T02:18:33.132Z,3.42
2023-01-01T02:21:06.255Z,3.00
2023-01-01T02:23:46.135Z,3.10
2023-01-01T02:26:25.357Z,3.28
2023-01-01T02:28:54.796Z,2.85
2023-01-01T02:31:30.072Z,3.10
2023-01-01T02:34:00.231Z,3.65
2023-01-01T02:36:27.191Z,3.42
2023-01-01T02:38:55.662Z,3.17
2023-01-01T02:41:26.237Z,3.10
2023-01-01T02:43:53.284Z,2.70
2023-01-01T02:48:47.366Z,2.90
2023-01-01T02:51:18.052Z,3.30
2023-01-01T02:53:58.623Z,2.88
2023-01-01T02:56:49.529Z,3.15
2023-01-01T02:59:53.351Z,3.42
2023-01-01T03:02:37.826Z,3.10
2023-01-01T03:05:21.584Z,3.20
2023-01-01T03:08:06.808Z,3.30
2023-01-01T03:10:46.237Z,3.25
2023-01-01T03:13:20.750Z,3.17
2023-01-01T03:15:47.134Z,3.08
2023-01-01T03:18:31.692Z,2.97
2023-01-01T03:20:58.867Z,3.33
2023-01-01T03:23:30.212Z,3.00
2023-01-01T03:26:00.354Z,3.17
2023-01-01T03:28:36.669Z,3.33
2023-01-01T03:31:03.821Z,2.95
2023-01-01T03:33:33.845Z,3.45
2023-01-01T03:36:28.523Z,3.30
2023-01-01T03:38:59.105Z,2.83
2023-01-01T03:41:36.460Z,3.15
2023-01-01T03:44:32.601Z,3.50
2023-01-01T03:46:59.434Z,3.25
2023-01-01T03:49:25.940Z,2.88
2023-01-01T03:51:58.387Z,2.88
2023-01-01T03:54:46.261Z,2.92
2023-01-01T03:57:26.395Z,2.85
2023-01-01T04:00:00.292Z,2.90
2023-01-01T04:02:31.915Z,3.10
2023-01-01T04:04:59.981Z,3.17
2023-01-01T04:07:26.677Z,2.80
2023-01-01T04:09:54.041Z,3.03
2023-01-01T04:12:21.044Z,2.95
2023-01-01T04:14:47.604Z,3.03
2023-01-01T04:17:14.515Z,2.90
2023-01-01T04:19:40.975Z,2.97
2023-01-01T04:22:07.743Z,3.00
2023-01-01T04:24:34.166Z,3.20
2023-01-01T04:27:00.607Z,3.70
2023-01-01T04:29:27.116Z,3.05
2023-01-01T04:31:53.656Z,3.00
2023-01-01T04:34:20.425Z,3.30
2023-01-01T04:36:46.975Z,3.08
2023-01-01T04:39:13.393Z,3.63
2023-01-01T04:41:39.789Z,3.35
2023-01-01T04:44:06.368Z,3.08
2023-01-01T04:46:32.805Z,3.50
2023-01-01T04:48:59.274Z,3.35
2023-01-01T04:51:25.723Z,3.53
2023-01-01T04:53:52.121Z,3.70
2023-01-01T04:56:20.625Z,3.50
2023-01-01T04:58:48.150Z,3.00
2023-01-01T05:01:17.724Z,2.83
2023-01-01T05:03:44.279Z,3.00
2023-01-01T05:06:12.076Z,2.92
2023-01-01T05:08:42.733Z,3.38
2023-01-01T05:11:14.717Z,2.95
2023-01-01T05:13:43.877Z,2.90
2023-01-01T05:16:14.145Z,3.00
2023-01-01T05:18:41.692Z,2.85
2023-01-01T05:21:11.775Z,3.20
2023-01-01T05:23:38.174Z,3.00
2023-01-01T05:26:11.582Z,3.15
2023-01-01T05:28:38.273Z,3.00
2023-01-01T05:31:09.415Z,2.97
2023-01-01T05:33:36.280Z,3.00
2023-01-01T05:36:04.111Z,3.25
2023-01-01T05:38:30.580Z,2.70
2023-01-01T05:40:57.311Z,3.33
2023-01-01T05:43:24.296Z,3.25
2023-01-01T05:46:00.282Z,3.13
2023-01-01T05:48:26.802Z,2.72
2023-01-01T05:50:53.224Z,2.85
2023-01-01T05:53:19.632Z,2.88
2023-01-01T05:55:52.725Z,2.97
2023-01-01T05:58:19.109Z,2.90
2023-01-01T06:00:45.518Z,2.90
2023-01-01T06:03:11.948Z,3.28
2023-01-01T06:05:38.353Z,2.92
2023-01-01T06:08:04.933Z,2.85
2023-01-01T06:10:31.344Z,2.88
2023-01-01T06:13:00.450Z,2.83
2023-01-01T06:15:27.441Z,2.78
2023-01-01T06:17:54.288Z,2.70
2023-01-01T06:20:20.847Z,2.90
2023-01-01T06:22:47.325Z,2.80
2023-01-01T06:25:13.866Z,3.45
2023-01-01T06:27:40.315Z,2.90
2023-01-01T06:30:07.853Z,3.00
2023-01-01T06:32:34.434Z,3.05
2023-01-01T06:35:00.843Z,2.80
2023-01-01T06:37:28.468Z,3.00
2023-01-01T06:39:54.981Z,2.88
2023-01-01T06:42:21.412Z,2.97
2023-01-01T06:44:48.093Z,3.03
2023-01-01T06:47:14.495Z,2.67
2023-01-01T06:49:40.892Z,2.70
2023-01-01T06:52:07.335Z,2.97
2023-01-01T06:54:33.738Z,3.20
2023-01-01T06:57:00.125Z,2.88
2023-01-01T06:59:26.571Z,2.70
2023-01-01T07:01:53.084Z,3.13
2023-01-01T07:04:19.633Z,3.10
2023-01-01T07:06:46.066Z,2.90
2023-01-01T07:09:12.710Z,2.80
2023-01-01T07:11:39.089Z,3.10
2023-01-01T07:14:05.555Z,2.90
2023-01-01T07:16:32.227Z,3.65
2023-01-01T07:18:58.692Z,3.03
2023-01-01T07:21:29.614Z,3.40
2023-01-01T07:24:01.082Z,2.97
2023-01-01T07:26:28.972Z,2.95
2023-01-01T07:28:59.482Z,3.05
2023-01-01T07:31:30.927Z,3.00
2023-01-01T07:33:57.453Z,2.85
2023-01-01T07:36:23.862Z,3.00
2023-01-01T07:38:50.309Z,2.88
2023-01-01T07:41:16.702Z,3.13
2023-01-01T07:43:43.086Z,3.30
2023-01-01T07:46:12.846Z,3.08
2023-01-01T07:48:40.275Z,3.05
2023-01-01T07:51:06.940Z,3.28
2023-01-01T07:53:33.510Z,3.22
2023-01-01T07:56:00.057Z,3.45
2023-01-01T07:58:26.556Z,3.80
2023-01-01T08:00:52.975Z,3.72
2023-01-01T08:03:19.506Z,3.67
2023-01-01T08:05:46.006Z,3.70
2023-01-01T08:08:12.548Z,3.50
2023-01-01T08:10:39.053Z,3.88
2023-01-01T08:13:06.742Z,3.90
2023-01-01T08:15:33.697Z,3.95
2023-01-01T08:18:01.772Z,3.60
2023-01-01T08:20:29.493Z,3.60
2023-01-01T08:23:01.452Z,3.58
2023-01-01T08:25:31.153Z,3.10
2023-01-01T08:27:57.599Z,3.20
2023-01-01T08:30:24.197Z,2.88
2023-01-01T08:32:50.713Z,3.33
2023-01-01T08:35:17.180Z,2.90
2023-01-01T08:37:43.603Z,3.20
2023-01-01T08:40:12.639Z,2.88
2023-01-01T08:42:39.585Z,3.00
2023-01-01T08:45:08.075Z,3.20
2023-01-01T08:47:34.502Z,3.20
2023-01-01T08:50:01.045Z,3.40
2023-01-01T08:52:27.460Z,3.20
2023-01-01T08:54:53.888Z,3.00
2023-01-01T08:57:20.306Z,3.00
2023-01-01T08:59:46.730Z,2.92
2023-01-01T09:02:13.354Z,3.10
2023-01-01T09:04:39.961Z,3.22
2023-01-01T09:07:06.447Z,3.30
2023-01-01T09:09:32.844Z,3.13
2023-01-01T09:12:04.018Z,3.40
2023-01-01T09:14:31.411Z,2.75
2023-01-01T09:16:58.107Z,2.90
2023-01-01T09:19:24.608Z,2.83
2023-01-01T09:21:51.386Z,3.10
2023-01-01T09:24:17.806Z,3.05
2023-01-01T09:26:45.754Z,3.20
2023-01-01T09:29:12.201Z,3.80
2023-01-01T09:31:38.677Z,3.35
2023-01-01T09:34:05.175Z,3.33
2023-01-01T09:36:32.794Z,3.10
2023-01-01T09:38:59.792Z,3.38
2023-01-01T09:41:50.537Z,3.08
2023-01-01T09:44:29.042Z,3.20
2023-01-01T09:47:00.629Z,3.10
2023-01-01T09:49:57.082Z,2.85
2023-01-01T09:52:24.705Z,3.17
2023-01-01T09:54:59.155Z,2.92
2023-01-01T09:57:31.237Z,2.75
2023-01-01T09:59:59.545Z,3.13
2023-01-01T10:02:38.026Z,2.97
2023-01-01T10:05:38.584Z,3.10
2023-01-01T10:08:10.640Z,3.05
2023-01-01T10:11:15.997Z,3.50
2023-01-01T10:13:44.368Z,3.05
2023-01-01T10:16:25.226Z,3.20
2023-01-01T10:19:02.910Z,3.17
2023-01-01T10:21:35.484Z,3.25
2023-01-01T10:24:14.008Z,2.90
2023-01-01T10:26:40.508Z,2.85
2023-01-01T10:29:14.091Z,3.13
2023-01-01T10:31:46.600Z,3.22
2023-01-01T10:34:28.061Z,2.78
2023-01-01T10:36:59.708Z,2.92
2023-01-01T10:39:26.759Z,2.85
2023-01-01T10:41:53.251Z,3.08
2023-01-01T10:44:29.055Z,3.42
2023-01-01T10:47:02.686Z,3.05
2023-01-01T10:49:29.097Z,3.25
2023-01-01T10:51:55.643Z,3.17
2023-01-01T10:54:41.827Z,3.72
2023-01-01T10:57:17.295Z,3.10
2023-01-01T10:59:49.779Z,2.92
2023-01-01T11:02:18.471Z,3.00
2023-01-01T11:04:45.541Z,2.75
2023-01-01T11:07:38.832Z,3.28
2023-01-01T11:10:07.264Z,3.42
2023-01-01T11:13:03.598Z,3.13
2023-01-01T11:15:35.728Z,3.03
2023-01-01T11:18:04.558Z,2.70
2023-01-01T11:20:31.475Z,3.45
2023-01-01T11:22:57.963Z,3.45
2023-01-01T11:25:29.444Z,3.55
2023-01-01T11:28:21.822Z,3.08
2023-01-01T11:31:03.604Z,4.60
2023-01-01T11:33:32.511Z,3.95
2023-01-01T11:35:59.274Z,3.35
2023-01-01T11:38:29.743Z,4.05
2023-01-01T11:41:03.093Z,5.88
2023-01-01T11:43:36.027Z,6.95
2023-01-01T11:46:07.084Z,6.72
2023-01-01T11:48:35.012Z,3.40
2023-01-01T11:51:06.484Z,4.18
2023-01-01T11:53:35.505Z,3.70
2023-01-01T11:56:01.891Z,3.33
2023-01-01T11:58:46.987Z,3.65
2023-01-01T12:01:19.319Z,3.20
2023-01-01T12:04:00.846Z,2.92
2023-01-01T12:06:30.387Z,3.15
2023-01-01T12:09:21.541Z,3.50
2023-01-01T12:11:52.682Z,6.68
2023-01-01T12:14:33.607Z,31.02
2023-01-01T12:17:09.620Z,15.80
2023-01-01T12:19:43.814Z,9.20
2023-01-01T12:22:15.716Z,9.75
2023-01-01T12:24:42.615Z,7.03
2023-01-01T12:27:37.864Z,6.25
2023-01-01T12:30:15.628Z,7.18
2023-01-01T12:33:07.865Z,4.40
2023-01-01T12:35:53.052Z,5.25
2023-01-01T12:38:28.662Z,5.20
2023-01-01T12:40:55.065Z,4.13
2023-01-01T12:43:27.526Z,4.32
2023-01-01T12:46:12.863Z,4.00
2023-01-01T12:48:46.007Z,4.03
2023-01-01T12:51:31.864Z,4.00
2023-01-01T12:54:23.238Z,3.78
2023-01-01T12:57:00.874Z,4.00
2023-01-01T12:59:30.293Z,4.20
2023-01-01T13:02:00.672Z,3.58
2023-01-01T13:04:27.623Z,3.92
2023-01-01T13:07:05.611Z,3.25
2023-01-01T13:09:48.374Z,3.78
2023-01-01T13:12:20.412Z,2.97
2023-01-01T13:14:49.765Z,3.20
2023-01-01T13:17:24.625Z,3.30
2023-01-01T13:20:01.932Z,3.13
2023-01-01T13:22:28.242Z,3.70
2023-01-01T13:25:12.821Z,3.60
2023-01-01T13:27:57.677Z,3.85
2023-01-01T13:30:36.456Z,4.10
2023-01-01T13:33:20.181Z,3.80
2023-01-01T13:36:12.876Z,4.03
2023-01-01T13:38:59.472Z,6.10
2023-01-01T13:41:47.080Z,9.00
2023-01-01T13:44:18.789Z,6.43
2023-01-01T13:46:47.018Z,5.50
2023-01-01T13:49:28.557Z,4.78
2023-01-01T13:52:18.182Z,3.92
2023-01-01T13:54:59.421Z,4.05
2023-01-01T13:57:28.779Z,4.07
2023-01-01T14:00:16.261Z,4.15
2023-01-01T14:02:49.049Z,3.67
2023-01-01T14:05:45.887Z,4.30
2023-01-01T14:08:27.745Z,3.85
2023-01-01T14:10:54.175Z,4.22
2023-01-01T14:13:29.776Z,4.03
2023-01-01T14:16:07.397Z,4.32
2023-01-01T14:18:36.661Z,4.38
2023-01-01T14:21:11.207Z,4.40
2023-01-01T14:23:43.445Z,4.82
2023-01-01T14:26:12.846Z,5.20
2023-01-01T14:28:39.755Z,5.07
2023-01-01T14:31:13.921Z,4.28
2023-01-01T14:33:40.477Z,4.95
2023-01-01T14:36:16.918Z,5.38
2023-01-01T14:38:45.258Z,5.60
2023-01-01T14:41:13.879Z,5.20
2023-01-01T14:43:42.494Z,5.13
2023-01-01T14:46:14.417Z,5.32
2023-01-01T14:48:49.763Z,4.50
2023-01-01T14:51:19.555Z,5.28
2023-01-01T14:53:47.041Z,5.45
2023-01-01T14:56:29.656Z,5.78
2023-01-01T14:59:29.918Z,6.50
2023-01-01T15:02:16.129Z,6.03
2023-01-01T15:04:42.810Z,7.25
2023-01-01T15:07:25.479Z,4.20
2023-01-01T15:09:54.021Z,4.10
2023-01-01T15:12:21.411Z,4.07
2023-01-01T15:14:50.144Z,4.32
2023-01-01T15:17:20.934Z,4.63
2023-01-01T15:20:07.324Z,4.55
2023-01-01T15:22:39.351Z,4.03
2023-01-01T15:25:06.236Z,3.67
2023-01-01T15:27:36.629Z,4.72
2023-01-01T15:30:11.661Z,4.30
2023-01-01T15:32:40.227Z,5.03
2023-01-01T15:35:19.810Z,4.43
2023-01-01T15:37:56.246Z,5.05
2023-01-01T15:40:22.544Z,4.65
2023-01-01T15:42:55.007Z,4.68
2023-01-01T15:45:26.095Z,3.83
2023-01-01T15:47:55.098Z,4.78
2023-01-01T15:50:30.406Z,4.18
2023-01-01T15:52:58.535Z,4.30
2023-01-01T15:55:31.591Z,4.00
2023-01-01T15:57:58.508Z,4.25
2023-01-01T16:00:28.234Z,4.38
2023-01-01T16:02:59.092Z,3.90
2023-01-01T16:05:27.110Z,4.47
2023-01-01T16:08:01.590Z,4.15
2023-01-01T16:10:28.027Z,4.18
2023-01-01T16:12:54.457Z,4.32
2023-01-01T16:15:20.857Z,4.50
2023-01-01T16:17:47.303Z,4.53
2023-01-01T16:20:15.970Z,4.47
2023-01-01T16:22:43.100Z,4.30
2023-01-01T16:25:17.333Z,4.28
2023-01-01T16:27:43.780Z,4.25
2023-01-01T16:30:11.252Z,4.35
2023-01-01T16:32:37.815Z,4.63
2023-01-01T16:35:11.539Z,4.45
2023-01-01T16:37:38.376Z,3.83
2023-01-01T16:40:05.375Z,4.63
2023-01-01T16:42:31.769Z,4.93
2023-01-01T16:44:58.168Z,4.15
2023-01-01T16:47:26.608Z,4.43
2023-01-01T16:49:53.055Z,5.25
2023-01-01T16:52:19.582Z,4.60
2023-01-01T16:54:46.012Z,4.63
2023-01-01T16:57:12.397Z,3.80
2023-01-01T16:59:38.829Z,3.80
2023-01-01T17:02:05.806Z,3.90
2023-01-01T17:04:32.332Z,3.42
2023-01-01T17:06:58.710Z,3.42
2023-01-01T17:09:25.249Z,3.92
2023-01-01T17:11:51.633Z,3.65
2023-01-01T17:14:18.028Z,3.85
2023-01-01T17:16:44.493Z,4.25
2023-01-01T17:19:14.937Z,3.58
2023-01-01T17:21:41.796Z,4.15
2023-01-01T17:24:08.382Z,3.78
2023-01-01T17:26:34.842Z,4.05
2023-01-01T17:29:01.526Z,3.78
2023-01-01T17:31:31.717Z,3.95
2023-01-01T17:33:58.217Z,3.53
2023-01-01T17:36:27.190Z,3.75
2023-01-01T17:38:53.852Z,3.70
2023-01-01T17:41:22.840Z,3.60
2023-01-01T17:43:51.004Z,5.03
2023-01-01T17:46:23.113Z,5.50
2023-01-01T17:48:49.884Z,4.78
2023-01-01T17:51:17.106Z,4.68
2023-01-01T17:53:43.644Z,4.53
2023-01-01T17:56:14.923Z,4.53
2023-01-01T17:58:42.265Z,4.80
2023-01-01T18:01:18.159Z,5.50
2023-01-01T18:03:44.821Z,4.43
2023-01-01T18:06:11.285Z,4.35
2023-01-01T18:08:37.700Z,4.05
2023-01-01T18:11:04.197Z,4.90
2023-01-01T18:13:30.645Z,5.35
2023-01-01T18:16:04.912Z,5.20
2023-01-01T18:18:31.499Z,5.00
2023-01-01T18:21:05.983Z,4.57
2023-01-01T18:23:39.934Z,5.63
2023-01-01T18:26:09.630Z,5.28
2023-01-01T18:28:38.425Z,4.82
2023-01-01T18:31:10.028Z,3.80
2023-01-01T18:33:36.751Z,3.97
2023-01-01T18:36:11.846Z,4.35
2023-01-01T18:38:39.093Z,4.25
2023-01-01T18:41:14.847Z,4.18
2023-01-01T18:43:41.320Z,3.80
2023-01-01T18:46:09.761Z,3.85
2023-01-01T18:48:36.520Z,4.32
2023-01-01T18:51:28.913Z,3.65
2023-01-01T18:53:56.753Z,3.80
2023-01-01T18:56:23.481Z,4.75
2023-01-01T18:58:50.574Z,4.70
2023-01-01T19:01:22.743Z,4.07
2023-01-01T19:03:51.661Z,3.47
2023-01-01T19:06:27.766Z,3.42
2023-01-01T19:09:01.380Z,3.67
2023-01-01T19:11:29.117Z,3.63
2023-01-01T19:14:02.058Z,4.07
2023-01-01T19:16:30.477Z,3.70
2023-01-01T19:19:23.713Z,3.88
2023-01-01T19:21:52.591Z,3.60
2023-01-01T19:24:24.610Z,3.30
2023-01-01T19:26:56.206Z,2.92
2023-01-01T19:29:24.471Z,3.45
2023-01-01T19:31:51.842Z,2.92
2023-01-01T19:34:18.341Z,3.42
2023-01-01T19:36:44.762Z,3.13
2023-01-01T19:39:11.179Z,3.65
2023-01-01T19:41:38.206Z,3.53
2023-01-01T19:44:09.812Z,3.10
2023-01-01T19:46:36.640Z,2.78
2023-01-01T19:49:03.214Z,2.95
2023-01-01T19:51:29.618Z,3.17
2023-01-01T19:53:56.178Z,3.42
2023-01-01T19:56:23.000Z,3.15
2023-01-01T19:58:49.514Z,3.03
2023-01-01T20:01:16.176Z,2.97
2023-01-01T20:03:53.891Z,3.40
2023-01-01T20:06:21.461Z,3.65
2023-01-01T20:08:47.953Z,3.03
2023-01-01T20:11:15.450Z,3.10
2023-01-01T20:13:42.094Z,3.03
2023-01-01T20:16:11.917Z,3.15
2023-01-01T20:18:38.454Z,2.83
2023-01-01T20:21:26.686Z,3.20
2023-01-01T20:23:54.094Z,3.00
2023-01-01T20:26:20.755Z,3.20
2023-01-01T20:29:05.806Z,3.33
2023-01-01T20:31:32.263Z,3.15
2023-01-01T20:33:58.707Z,2.90
2023-01-01T20:36:43.555Z,3.10
2023-01-01T20:39:09.960Z,3.05
2023-01-01T20:41:36.416Z,3.20
2023-01-01T20:44:02.991Z,3.10
2023-01-01T20:46:32.167Z,3.28
2023-01-01T20:48:58.893Z,3.28
2023-01-01T20:51:25.780Z,2.42
2023-01-01T20:53:52.215Z,2.80
2023-01-01T20:56:18.614Z,3.17
2023-01-01T20:58:49.384Z,3.03
2023-01-01T21:01:18.011Z,3.30
2023-01-01T21:03:44.551Z,3.30
2023-01-01T21:06:10.976Z,2.72
2023-01-01T21:08:37.352Z,4.10
2023-01-01T21:11:04.031Z,2.88
2023-01-01T21:13:30.535Z,3.33
2023-01-01T21:16:00.416Z,2.90
2023-01-01T21:18:31.929Z,3.00
2023-01-01T21:20:58.340Z,3.05
2023-01-01T21:23:30.839Z,3.15
2023-01-01T21:25:57.246Z,3.10
2023-01-01T21:28:27.418Z,2.95
2023-01-01T21:30:55.965Z,2.95
2023-01-01T21:33:28.254Z,2.78
2023-01-01T21:35:54.876Z,2.90
2023-01-01T21:38:29.785Z,2.95
2023-01-01T21:41:01.959Z,2.90
2023-01-01T21:43:40.527Z,3.40
2023-01-01T21:46:06.902Z,3.10
2023-01-01T21:48:33.987Z,3.42
2023-01-01T21:51:01.016Z,3.50
2023-01-01T21:53:33.622Z,3.30
2023-01-01T21:56:04.763Z,2.90
2023-01-01T21:58:56.959Z,2.88
2023-01-01T22:01:26.270Z,2.92
2023-01-01T22:04:02.409Z,3.15
2023-01-01T22:06:37.433Z,3.10
2023-01-01T22:09:16.578Z,3.08
2023-01-01T22:11:44.416Z,2.92
2023-01-01T22:14:19.029Z,3.15
2023-01-01T22:16:47.131Z,3.13
2023-01-01T22:19:18.738Z,3.03
2023-01-01T22:21:45.937Z,2.80
2023-01-01T22:24:33.169Z,2.83
2023-01-01T22:27:14.779Z,3.10
2023-01-01T22:29:44.333Z,3.25
2023-01-01T22:32:25.955Z,2.85
2023-01-01T22:35:04.221Z,3.45
2023-01-01T22:37:41.049Z,3.35
2023-01-01T22:40:17.988Z,2.63
2023-01-01T22:42:44.393Z,3.63
2023-01-01T22:45:15.354Z,2.75
2023-01-01T22:47:44.679Z,3.13
2023-01-01T22:50:26.063Z,3.05
2023-01-01T22:52:52.826Z,2.80
2023-01-01T22:55:19.567Z,2.70
2023-01-01T22:57:46.097Z,3.15
2023-01-01T23:00:14.012Z,3.38
2023-01-01T23:02:40.558Z,3.33
2023-01-01T23:05:07.295Z,2.90
2023-01-01T23:07:39.658Z,3.33
2023-01-01T23:10:10.204Z,3.10
2023-01-01T23:12:36.679Z,3.35
2023-01-01T23:15:21.768Z,3.40
2023-01-01T23:17:48.717Z,3.00
2023-01-01T23:20:15.222Z,3.10
2023-01-01T23:22:44.877Z,3.00
2023-01-01T23:25:13.924Z,2.72
2023-01-01T23:27:40.448Z,3.45
2023-01-01T23:30:07.232Z,2.90
2023-01-01T23:32:34.113Z,3.00
2023-01-01T23:35:00.762Z,3.30
2023-01-01T23:37:27.571Z,3.28
2023-01-01T23:39:54.043Z,3.38
2023-01-01T23:42:20.424Z,3.30
2023-01-01T23:44:46.879Z,3.08
2023-01-01T23:47:13.545Z,2.88
2023-01-01T23:49:40.955Z,3.00
2023-01-01T23:52:07.503Z,3.13
2023-01-01T23:54:33.954Z,2.75
2023-01-01T23:57:00.377Z,3.45
2023-01-01T23:59:26.801Z,2.97
